Pedro Bay, Alaska
Current Conditions -  °F | °C
As of 6:53 PM on Tuesday 21 Oct 2014 (Local Time) from PAIL Reporting Station
Overcast Overcast  
Wind Chill: 27°   Ceiling: 6000
Heat Index: 33°   Visibility: 10mi
Dew Point: 29°   Wind: 7mph
Humidity: 85%   Direction: 340°NNW
Pressure: 29.3"   Gusts: NA
Location:  59.79°N, 154.14°W
Report Text: PAIL 220253Z 34006KT 10SM OVC060 01/M02 A2930 RMK AO2 SLP926 60000 T00061017 56003
Loading
Personal Weather Stations






























Interactive Weather Map
Tropical Storm Tracking
New forecast layout! Learn more

10-Day Weather Forecast

Advertisements
Track Severe Weather on mobile